createdAt,value
2016-07-22T00:00:25.142Z,20.31
2016-07-22T00:00:54.445Z,20.34
2016-07-22T00:01:25.172Z,20.32
2016-07-22T00:01:55.185Z,20.32
2016-07-22T00:02:25.202Z,20.31
2016-07-22T00:02:55.222Z,20.28
2016-07-22T00:03:25.233Z,20.37
2016-07-22T00:03:55.242Z,20.39
2016-07-22T00:04:24.563Z,20.28
2016-07-22T00:04:55.288Z,20.29
2016-07-22T00:05:25.298Z,20.29
2016-07-22T00:05:55.323Z,20.28
2016-07-22T00:06:25.326Z,20.29
2016-07-22T00:06:55.341Z,20.37
2016-07-22T00:07:25.361Z,20.31
2016-07-22T00:07:54.674Z,20.36
2016-07-22T00:08:25.396Z,20.32
2016-07-22T00:08:55.405Z,20.34
2016-07-22T00:09:25.424Z,20.29
2016-07-22T00:09:55.434Z,20.36
2016-07-22T00:10:25.451Z,20.36
2016-07-22T00:10:55.471Z,20.26
2016-07-22T00:11:25.486Z,20.34
2016-07-22T00:11:55.499Z,20.31
2016-07-22T00:12:25.523Z,20.37
2016-07-22T00:12:55.528Z,20.34
2016-07-22T00:13:25.547Z,20.29
2016-07-22T00:13:55.573Z,20.43
2016-07-22T00:14:25.583Z,20.47
2016-07-22T00:14:55.594Z,20.36
2016-07-22T00:15:25.605Z,20.39
2016-07-22T00:15:54.916Z,20.34
2016-07-22T00:16:25.648Z,20.32
2016-07-22T00:16:55.657Z,20.31
2016-07-22T00:17:25.669Z,20.32
2016-07-22T00:17:55.685Z,20.34
2016-07-22T00:18:25.707Z,20.34
2016-07-22T00:18:55.723Z,20.5
2016-07-22T00:19:25.737Z,20.41
2016-07-22T00:19:55.750Z,20.41
2016-07-22T00:20:25.781Z,20.41
2016-07-22T00:20:55.779Z,20.41
2016-07-22T00:21:25.798Z,20.44
2016-07-22T00:21:55.109Z,20.43
2016-07-22T00:22:25.825Z,20.36
2016-07-22T00:22:55.841Z,20.36
2016-07-22T00:23:25.868Z,20.36
2016-07-22T00:23:55.881Z,20.34
2016-07-22T00:24:25.888Z,20.28
2016-07-22T00:24:55.902Z,20.43
2016-07-22T00:25:25.914Z,20.39
2016-07-22T00:25:55.231Z,20.32
2016-07-22T00:26:25.951Z,20.34
2016-07-22T00:26:55.967Z,20.36
2016-07-22T00:27:25.990Z,20.28
2016-07-22T00:27:56.007Z,20.36
2016-07-22T00:28:26.008Z,20.32
2016-07-22T00:28:56.029Z,20.31
2016-07-22T00:29:26.050Z,20.4
2016-07-22T00:29:56.064Z,20.4
2016-07-22T00:30:25.372Z,20.43
2016-07-22T00:30:56.091Z,20.48
2016-07-22T00:31:26.111Z,20.52
2016-07-22T00:31:56.125Z,20.47
2016-07-22T00:32:26.145Z,20.48
2016-07-22T00:32:56.159Z,20.52
2016-07-22T00:33:25.459Z,20.52
2016-07-22T00:33:56.182Z,20.66
2016-07-22T00:34:26.218Z,20.62
2016-07-22T00:34:55.508Z,20.66
2016-07-22T00:35:26.235Z,20.66
2016-07-22T00:35:56.247Z,20.56
2016-07-22T00:36:24.849Z,20.59
2016-07-22T00:36:56.282Z,20.59
2016-07-22T00:37:26.296Z,20.59
2016-07-22T00:37:56.306Z,20.59
2016-07-22T00:38:26.328Z,20.65
2016-07-22T00:38:55.636Z,20.65
2016-07-22T00:39:25.648Z,20.59
2016-07-22T00:39:56.371Z,20.67
2016-07-22T00:40:26.390Z,20.66
2016-07-22T00:40:55.699Z,20.62
2016-07-22T00:41:25.710Z,20.66
2016-07-22T00:41:56.435Z,20.7
2016-07-22T00:42:26.446Z,20.66
2016-07-22T00:42:56.463Z,20.62
2016-07-22T00:43:26.485Z,20.67
2016-07-22T00:43:56.497Z,20.63
2016-07-22T00:44:26.509Z,20.7
2016-07-22T00:44:56.525Z,20.72
2016-07-22T00:45:26.545Z,20.63
2016-07-22T00:45:56.569Z,20.66
2016-07-22T00:46:26.585Z,20.62
2016-07-22T00:46:55.882Z,20.69
2016-07-22T00:47:26.607Z,20.7
2016-07-22T00:47:55.919Z,20.81
2016-07-22T00:48:26.635Z,20.75
2016-07-22T00:48:56.650Z,20.72
2016-07-22T00:49:26.671Z,20.72
2016-07-22T00:49:56.681Z,20.74
2016-07-22T00:50:26.698Z,20.74
2016-07-22T00:50:56.716Z,20.74
2016-07-22T00:51:26.741Z,20.75
2016-07-22T00:51:56.048Z,20.81
2016-07-22T00:52:26.761Z,20.74
2016-07-22T00:52:56.776Z,20.72
2016-07-22T00:53:26.789Z,20.78
2016-07-22T00:53:56.808Z,20.8
2016-07-22T00:54:26.819Z,20.78
2016-07-22T00:54:56.846Z,20.8
2016-07-22T00:55:26.857Z,20.75
2016-07-22T00:55:56.880Z,20.74
2016-07-22T00:56:26.886Z,20.82
2016-07-22T00:56:56.901Z,20.74
2016-07-22T00:57:26.917Z,20.75
2016-07-22T00:57:56.933Z,20.7
2016-07-22T00:58:26.945Z,20.8
2016-07-22T00:58:56.256Z,20.82
2016-07-22T00:59:26.976Z,20.8
2016-07-22T00:59:56.997Z,20.85
2016-07-22T01:00:27.013Z,20.82
2016-07-22T01:00:57.038Z,20.85
2016-07-22T01:01:27.049Z,20.92
2016-07-22T01:01:57.064Z,20.88
2016-07-22T01:02:27.077Z,20.87
2016-07-22T01:02:57.103Z,20.84
2016-07-22T01:03:27.102Z,20.87
2016-07-22T01:03:57.120Z,20.85
2016-07-22T01:04:27.151Z,20.88
2016-07-22T01:04:57.154Z,20.9
2016-07-22T01:05:27.171Z,20.9
2016-07-22T01:05:57.184Z,20.84
2016-07-22T01:06:27.209Z,20.81
2016-07-22T01:06:57.218Z,20.82
2016-07-22T01:07:27.229Z,20.88
2016-07-22T01:07:57.244Z,20.8
2016-07-22T01:08:27.262Z,20.88
2016-07-22T01:08:57.272Z,20.85
2016-07-22T01:09:27.298Z,20.84
2016-07-22T01:09:57.314Z,20.84
2016-07-22T01:10:26.614Z,20.85
2016-07-22T01:10:57.338Z,20.87
2016-07-22T01:11:27.357Z,20.87
2016-07-22T01:11:57.373Z,20.85
2016-07-22T01:12:27.384Z,20.88
2016-07-22T01:12:57.410Z,20.87
2016-07-22T01:13:27.420Z,20.88
2016-07-22T01:13:57.448Z,20.88
2016-07-22T01:14:26.739Z,20.92
2016-07-22T01:14:57.482Z,20.87
2016-07-22T01:15:26.779Z,20.84
2016-07-22T01:15:57.500Z,20.88
2016-07-22T01:16:27.510Z,20.87
2016-07-22T01:16:57.525Z,20.87
2016-07-22T01:17:27.545Z,20.88
2016-07-22T01:17:57.564Z,20.85
2016-07-22T01:18:27.578Z,20.88
2016-07-22T01:18:57.589Z,20.84
2016-07-22T01:19:27.604Z,20.9
2016-07-22T01:19:57.626Z,20.84
2016-07-22T01:20:27.644Z,20.88
2016-07-22T01:20:57.658Z,20.88
2016-07-22T01:21:27.666Z,20.88
2016-07-22T01:21:57.686Z,20.82
2016-07-22T01:22:27.699Z,20.87
2016-07-22T01:22:57.715Z,20.85
2016-07-22T01:23:27.729Z,20.81
2016-07-22T01:23:57.751Z,20.85
2016-07-22T01:24:27.772Z,20.88
2016-07-22T01:24:57.785Z,20.84
2016-07-22T01:25:27.795Z,20.92
2016-07-22T01:25:57.809Z,20.9
2016-07-22T01:26:27.118Z,20.87
2016-07-22T01:26:57.841Z,20.85
2016-07-22T01:27:27.859Z,20.87
2016-07-22T01:27:57.871Z,20.85
2016-07-22T01:28:27.892Z,20.9
2016-07-22T01:28:57.204Z,20.88
2016-07-22T01:29:27.923Z,20.88
2016-07-22T01:29:57.937Z,20.84
2016-07-22T01:30:27.959Z,20.87
2016-07-22T01:30:57.965Z,20.9
2016-07-22T01:31:27.984Z,20.92
2016-07-22T01:31:58.011Z,20.85
2016-07-22T01:32:28.019Z,20.85
2016-07-22T01:32:58.029Z,20.85
2016-07-22T01:33:28.044Z,20.85
2016-07-22T01:33:58.064Z,20.88
2016-07-22T01:34:28.078Z,20.85
2016-07-22T01:34:57.383Z,20.9
2016-07-22T01:35:28.104Z,20.9
2016-07-22T01:35:58.126Z,20.87
2016-07-22T01:36:28.140Z,20.84
2016-07-22T01:36:58.153Z,20.88
2016-07-22T01:37:28.170Z,20.87
2016-07-22T01:37:58.181Z,20.85
2016-07-22T01:38:28.199Z,20.85
2016-07-22T01:38:58.215Z,20.82
2016-07-22T01:39:28.234Z,20.88
2016-07-22T01:39:57.545Z,20.87
2016-07-22T01:40:28.262Z,20.8
2016-07-22T01:40:58.279Z,20.82
2016-07-22T01:41:28.294Z,20.81
2016-07-22T01:41:58.319Z,20.87
2016-07-22T01:42:28.325Z,20.88
2016-07-22T01:42:58.341Z,20.88
2016-07-22T01:43:27.651Z,20.85
2016-07-22T01:43:58.380Z,20.88
2016-07-22T01:44:28.386Z,20.78
2016-07-22T01:44:58.402Z,20.84
2016-07-22T01:45:28.418Z,20.8
2016-07-22T01:45:58.444Z,20.81
2016-07-22T01:46:28.447Z,20.74
2016-07-22T01:46:58.466Z,20.74
2016-07-22T01:47:28.490Z,20.69
2016-07-22T01:47:58.505Z,20.74
2016-07-22T01:48:28.511Z,20.72
2016-07-22T01:48:57.819Z,20.77
2016-07-22T01:49:28.551Z,20.74
2016-07-22T01:49:58.568Z,20.74
2016-07-22T01:50:28.576Z,20.69
2016-07-22T01:50:58.590Z,20.7
2016-07-22T01:51:28.612Z,20.72
2016-07-22T01:51:58.628Z,20.7
2016-07-22T01:52:28.642Z,20.66
2016-07-22T01:52:58.658Z,20.69
2016-07-22T01:53:28.671Z,20.72
2016-07-22T01:53:58.688Z,20.67
2016-07-22T01:54:28.705Z,20.66
2016-07-22T01:54:58.725Z,20.66
2016-07-22T01:55:28.731Z,20.77
2016-07-22T01:55:58.760Z,20.74
2016-07-22T01:56:28.055Z,20.74
2016-07-22T01:56:58.780Z,20.75
2016-07-22T01:57:28.805Z,20.7
2016-07-22T01:57:58.821Z,20.66
2016-07-22T01:58:28.113Z,20.65
2016-07-22T01:58:58.847Z,20.63
2016-07-22T01:59:28.860Z,20.6
2016-07-22T01:59:58.164Z,20.62
2016-07-22T02:00:28.178Z,20.65
2016-07-22T02:00:58.902Z,20.69
2016-07-22T02:01:28.920Z,20.66
2016-07-22T02:01:58.932Z,20.65
2016-07-22T02:02:28.956Z,20.63
2016-07-22T02:02:58.967Z,20.66
2016-07-22T02:03:28.986Z,20.65
2016-07-22T02:03:58.296Z,20.58
2016-07-22T02:04:29.022Z,20.62
2016-07-22T02:04:59.032Z,20.56
2016-07-22T02:05:28.337Z,20.62
2016-07-22T02:05:58.356Z,20.55
2016-07-22T02:06:29.076Z,20.52
2016-07-22T02:06:59.100Z,20.52
2016-07-22T02:07:29.105Z,20.52
2016-07-22T02:07:59.135Z,20.56
2016-07-22T02:08:29.146Z,20.55
2016-07-22T02:08:59.156Z,20.5
2016-07-22T02:09:29.164Z,20.47
2016-07-22T02:09:59.189Z,20.51
2016-07-22T02:10:29.199Z,20.48
2016-07-22T02:10:59.212Z,20.47
2016-07-22T02:11:29.231Z,20.4
2016-07-22T02:11:59.258Z,20.41
2016-07-22T02:12:29.268Z,20.5
2016-07-22T02:12:59.280Z,20.43
2016-07-22T02:13:29.294Z,20.48
2016-07-22T02:13:59.314Z,20.4
2016-07-22T02:14:29.333Z,20.43
2016-07-22T02:14:59.345Z,20.44
2016-07-22T02:15:29.356Z,20.43
2016-07-22T02:15:59.379Z,20.4
2016-07-22T02:16:29.388Z,20.37
2016-07-22T02:16:59.411Z,20.48
2016-07-22T02:17:29.422Z,20.48
2016-07-22T02:17:59.439Z,20.37
2016-07-22T02:18:29.452Z,20.48
2016-07-22T02:18:59.467Z,20.47
2016-07-22T02:19:29.492Z,20.43
2016-07-22T02:19:59.498Z,20.47
2016-07-22T02:20:29.514Z,20.47
2016-07-22T02:20:59.538Z,20.44
2016-07-22T02:21:28.833Z,20.41
2016-07-22T02:21:59.565Z,20.5
2016-07-22T02:22:29.577Z,20.4
2016-07-22T02:22:59.589Z,20.4
2016-07-22T02:23:28.896Z,20.41
2016-07-22T02:23:59.649Z,20.44
2016-07-22T02:24:29.648Z,20.44
2016-07-22T02:24:59.653Z,20.44
2016-07-22T02:25:29.670Z,20.39
2016-07-22T02:25:59.692Z,20.4
2016-07-22T02:26:29.714Z,20.32
2016-07-22T02:26:59.719Z,20.28
2016-07-22T02:27:29.730Z,20.31
2016-07-22T02:27:59.753Z,20.31
2016-07-22T02:28:29.764Z,20.34
2016-07-22T02:28:59.783Z,20.26
2016-07-22T02:29:29.792Z,20.21
2016-07-22T02:29:59.813Z,20.25
2016-07-22T02:30:29.830Z,20.24
2016-07-22T02:30:59.844Z,20.26
2016-07-22T02:31:29.854Z,20.21
2016-07-22T02:31:59.167Z,20.19
2016-07-22T02:32:29.887Z,20.29
2016-07-22T02:32:59.193Z,20.24
2016-07-22T02:33:29.924Z,20.29
2016-07-22T02:33:59.952Z,20.29
2016-07-22T02:34:29.951Z,20.36
2016-07-22T02:34:58.544Z,20.34
2016-07-22T02:35:29.982Z,20.31
2016-07-22T02:36:00.000Z,20.32
2016-07-22T02:36:29.302Z,20.34
2016-07-22T02:37:00.033Z,20.4
2016-07-22T02:37:30.043Z,20.26
2016-07-22T02:38:00.057Z,20.29
2016-07-22T02:38:30.074Z,20.41
2016-07-22T02:39:00.090Z,20.36
2016-07-22T02:39:30.102Z,20.34
2016-07-22T02:40:00.125Z,20.31
2016-07-22T02:40:29.427Z,20.4
2016-07-22T02:41:00.150Z,20.41
2016-07-22T02:41:30.174Z,20.44
2016-07-22T02:42:00.189Z,20.36
2016-07-22T02:42:30.205Z,20.48
2016-07-22T02:43:00.213Z,20.43
2016-07-22T02:43:29.517Z,20.41
2016-07-22T02:43:59.538Z,20.48
2016-07-22T02:44:30.264Z,20.43
2016-07-22T02:45:00.274Z,20.37
2016-07-22T02:45:30.289Z,20.47
2016-07-22T02:45:59.600Z,20.47
2016-07-22T02:46:30.324Z,20.41
2016-07-22T02:47:00.338Z,20.41
2016-07-22T02:47:30.357Z,20.36
2016-07-22T02:48:00.393Z,20.32
2016-07-22T02:48:30.384Z,20.25
2016-07-22T02:49:00.400Z,20.31
2016-07-22T02:49:30.418Z,20.28
2016-07-22T02:50:00.439Z,20.32
2016-07-22T02:50:30.443Z,20.21
2016-07-22T02:51:00.460Z,20.19
2016-07-22T02:51:30.473Z,20.28
2016-07-22T02:52:00.491Z,20.32
2016-07-22T02:52:30.510Z,20.31
2016-07-22T02:53:00.530Z,20.28
2016-07-22T02:53:30.543Z,20.32
2016-07-22T02:54:00.760Z,20.34
2016-07-22T02:54:30.569Z,20.34
2016-07-22T02:55:00.584Z,20.28
2016-07-22T02:55:30.598Z,20.4
2016-07-22T02:56:00.627Z,20.26
2016-07-22T02:56:30.636Z,20.31
2016-07-22T02:56:59.938Z,20.44
2016-07-22T02:57:30.669Z,20.41
2016-07-22T02:58:00.685Z,20.28
2016-07-22T02:58:30.697Z,20.43
2016-07-22T02:59:00.707Z,20.4
2016-07-22T02:59:30.730Z,20.43
2016-07-22T03:00:00.744Z,20.4
2016-07-22T03:00:30.761Z,20.44
2016-07-22T03:01:00.775Z,20.48
2016-07-22T03:01:30.789Z,20.4
2016-07-22T03:02:00.819Z,20.41
2016-07-22T03:02:30.107Z,20.47
2016-07-22T03:03:00.841Z,20.48
2016-07-22T03:03:30.145Z,20.43
2016-07-22T03:04:00.879Z,20.43
2016-07-22T03:04:30.875Z,20.48
2016-07-22T03:05:00.901Z,20.44
2016-07-22T03:05:30.915Z,20.47
2016-07-22T03:06:00.941Z,20.47
2016-07-22T03:06:30.947Z,20.4
2016-07-22T03:07:00.962Z,20.47
2016-07-22T03:07:30.975Z,20.48
2016-07-22T03:08:00.283Z,20.52
2016-07-22T03:08:31.005Z,20.43
2016-07-22T03:09:01.024Z,20.36
2016-07-22T03:09:31.045Z,20.44
2016-07-22T03:10:00.357Z,20.47
2016-07-22T03:10:30.361Z,20.41
2016-07-22T03:11:01.085Z,20.41
2016-07-22T03:11:30.396Z,20.43
2016-07-22T03:12:01.130Z,20.43
2016-07-22T03:12:31.134Z,20.29
2016-07-22T03:13:01.148Z,20.36
2016-07-22T03:13:31.170Z,20.31
2016-07-22T03:14:01.178Z,20.28
2016-07-22T03:14:31.194Z,20.28
2016-07-22T03:15:01.210Z,20.36
2016-07-22T03:15:30.521Z,20.37
2016-07-22T03:16:00.529Z,20.36
2016-07-22T03:16:31.255Z,20.26
2016-07-22T03:17:01.272Z,20.24
2016-07-22T03:17:30.597Z,20.28
2016-07-22T03:18:01.310Z,20.11
2016-07-22T03:18:31.317Z,20.22
2016-07-22T03:19:00.625Z,20.18
2016-07-22T03:19:31.364Z,20.14
2016-07-22T03:20:00.655Z,20.16
2016-07-22T03:20:30.685Z,20.09
2016-07-22T03:21:00.689Z,20.09
2016-07-22T03:21:31.411Z,20.13
2016-07-22T03:22:01.436Z,20.1
2016-07-22T03:22:31.446Z,20
2016-07-22T03:23:01.466Z,20.04
2016-07-22T03:23:31.473Z,20.02
2016-07-22T03:24:01.492Z,20
2016-07-22T03:24:31.517Z,19.96
2016-07-22T03:25:01.519Z,19.99
2016-07-22T03:25:31.539Z,20
2016-07-22T03:26:01.555Z,19.88
2016-07-22T03:26:31.573Z,20
2016-07-22T03:27:01.590Z,19.89
2016-07-22T03:27:30.889Z,19.89
2016-07-22T03:28:01.620Z,19.92
2016-07-22T03:28:31.641Z,19.96
2016-07-22T03:29:01.661Z,19.94
2016-07-22T03:29:30.956Z,19.95
2016-07-22T03:30:01.676Z,20
2016-07-22T03:30:31.688Z,19.89
2016-07-22T03:31:01.717Z,19.86
2016-07-22T03:31:31.723Z,19.91
2016-07-22T03:32:01.738Z,19.94
2016-07-22T03:32:31.752Z,19.96
2016-07-22T03:33:01.775Z,19.91
2016-07-22T03:33:31.783Z,19.94
2016-07-22T03:34:01.802Z,19.86
2016-07-22T03:34:31.825Z,19.86
2016-07-22T03:35:01.122Z,19.89
2016-07-22T03:35:31.842Z,19.77
2016-07-22T03:36:01.867Z,19.81
2016-07-22T03:36:31.875Z,19.76
2016-07-22T03:37:00.475Z,19.73
2016-07-22T03:37:31.906Z,19.69
2016-07-22T03:38:01.927Z,19.66
2016-07-22T03:38:31.938Z,19.63
2016-07-22T03:39:01.958Z,19.64
2016-07-22T03:39:31.972Z,19.7
2016-07-22T03:40:01.990Z,19.62
2016-07-22T03:40:32.006Z,19.62
2016-07-22T03:41:02.016Z,19.69
2016-07-22T03:41:32.037Z,19.67
2016-07-22T03:42:02.053Z,19.71
2016-07-22T03:42:31.355Z,19.66
2016-07-22T03:43:02.076Z,19.67
2016-07-22T03:43:31.389Z,19.73
2016-07-22T03:44:01.402Z,19.66
2016-07-22T03:44:32.123Z,19.76
2016-07-22T03:45:02.140Z,19.73
2016-07-22T03:45:32.162Z,19.76
2016-07-22T03:46:02.168Z,19.79
2016-07-22T03:46:32.187Z,19.74
2016-07-22T03:47:02.205Z,19.77
2016-07-22T03:47:32.218Z,19.7
2016-07-22T03:48:02.225Z,19.69
2016-07-22T03:48:32.251Z,19.63
2016-07-22T03:49:02.263Z,19.66
2016-07-22T03:49:32.284Z,19.64
2016-07-22T03:50:02.313Z,19.66
2016-07-22T03:50:32.307Z,19.67
2016-07-22T03:51:02.324Z,19.77
2016-07-22T03:51:32.337Z,19.63
2016-07-22T03:52:02.369Z,19.73
2016-07-22T03:52:32.372Z,19.67
2016-07-22T03:53:02.386Z,19.63
2016-07-22T03:53:32.400Z,19.59
2016-07-22T03:54:02.418Z,19.62
2016-07-22T03:54:32.432Z,19.64
2016-07-22T03:55:02.443Z,19.63
2016-07-22T03:55:32.463Z,19.79
2016-07-22T03:56:02.479Z,19.73
2016-07-22T03:56:32.504Z,19.71
2016-07-22T03:57:02.507Z,19.82
2016-07-22T03:57:32.523Z,19.81
2016-07-22T03:58:01.128Z,19.84
2016-07-22T03:58:32.555Z,19.86
2016-07-22T03:59:02.569Z,19.91
2016-07-22T03:59:31.883Z,19.91
2016-07-22T04:00:02.610Z,19.94
2016-07-22T04:00:32.621Z,20
2016-07-22T04:01:02.638Z,19.91
2016-07-22T04:01:31.934Z,20.04
2016-07-22T04:02:02.670Z,20.02
2016-07-22T04:02:32.677Z,19.88
2016-07-22T04:03:02.694Z,19.99
2016-07-22T04:03:32.708Z,20.03
2016-07-22T04:04:02.729Z,20
2016-07-22T04:04:32.740Z,20
2016-07-22T04:05:01.348Z,19.96
2016-07-22T04:05:32.774Z,19.99
2016-07-22T04:06:02.794Z,20.04
2016-07-22T04:06:32.813Z,20.02
2016-07-22T04:07:02.827Z,20.03
2016-07-22T04:07:32.847Z,20
2016-07-22T04:08:02.853Z,20.03
2016-07-22T04:08:32.158Z,20.14
2016-07-22T04:09:02.891Z,20.11
2016-07-22T04:09:32.897Z,20.19
2016-07-22T04:10:02.209Z,20.11
2016-07-22T04:10:32.921Z,20.1
2016-07-22T04:11:02.945Z,20.07
2016-07-22T04:11:32.953Z,20.07
2016-07-22T04:12:02.970Z,20.11
2016-07-22T04:12:32.998Z,20.14
2016-07-22T04:13:03.001Z,20.14
2016-07-22T04:13:33.016Z,20.21
2016-07-22T04:14:03.038Z,20.16
2016-07-22T04:14:33.048Z,20.13
2016-07-22T04:15:03.072Z,20.18
2016-07-22T04:15:33.080Z,20.18
2016-07-22T04:16:03.112Z,20.26
2016-07-22T04:16:33.114Z,20.21
2016-07-22T04:17:03.133Z,20.28
2016-07-22T04:17:33.149Z,20.29
2016-07-22T04:18:03.160Z,20.32
2016-07-22T04:18:33.174Z,20.34
2016-07-22T04:19:03.192Z,20.29
2016-07-22T04:19:33.202Z,20.43
2016-07-22T04:20:03.229Z,20.37
2016-07-22T04:20:33.244Z,20.43
2016-07-22T04:21:03.252Z,20.39
2016-07-22T04:21:33.272Z,20.4
2016-07-22T04:22:03.281Z,20.51
2016-07-22T04:22:33.315Z,20.56
2016-07-22T04:23:03.313Z,20.56
2016-07-22T04:23:33.329Z,20.59
2016-07-22T04:24:02.642Z,20.56
2016-07-22T04:24:32.655Z,20.59
2016-07-22T04:25:03.375Z,20.59
2016-07-22T04:25:33.398Z,20.56
2016-07-22T04:26:03.410Z,20.52
2016-07-22T04:26:32.712Z,20.55
2016-07-22T04:27:03.437Z,20.55
2016-07-22T04:27:33.453Z,20.69
2016-07-22T04:28:03.469Z,20.67
2016-07-22T04:28:33.482Z,20.56
2016-07-22T04:29:03.496Z,20.65
2016-07-22T04:29:33.521Z,20.65
2016-07-22T04:30:03.531Z,20.69
2016-07-22T04:30:33.553Z,20.7
2016-07-22T04:31:03.562Z,20.72
2016-07-22T04:31:33.583Z,20.81
2016-07-22T04:32:02.895Z,20.82
2016-07-22T04:32:33.607Z,20.84
2016-07-22T04:33:03.629Z,20.95
2016-07-22T04:33:33.641Z,20.99
2016-07-22T04:34:03.658Z,20.99
2016-07-22T04:34:33.678Z,21.07
2016-07-22T04:35:03.695Z,21.07
2016-07-22T04:35:32.996Z,21.12
2016-07-22T04:36:03.728Z,21.07
2016-07-22T04:36:33.029Z,21.22
2016-07-22T04:37:03.752Z,21.27
2016-07-22T04:37:33.765Z,21.25
2016-07-22T04:38:03.787Z,21.32
2016-07-22T04:38:33.798Z,21.37
2016-07-22T04:39:03.826Z,21.3
2016-07-22T04:39:33.828Z,21.37
2016-07-22T04:40:03.858Z,21.36
2016-07-22T04:40:33.865Z,21.35
2016-07-22T04:41:03.880Z,21.4
2016-07-22T04:41:33.891Z,21.39
2016-07-22T04:42:03.909Z,21.46
2016-07-22T04:42:33.214Z,21.39
2016-07-22T04:43:03.239Z,21.43
2016-07-22T04:43:33.960Z,21.52
2016-07-22T04:44:03.973Z,21.4
2016-07-22T04:44:33.994Z,21.45
2016-07-22T04:45:03.299Z,21.43
2016-07-22T04:45:34.020Z,21.45
2016-07-22T04:46:04.036Z,21.5
2016-07-22T04:46:34.050Z,21.42
2016-07-22T04:47:04.067Z,21.48
2016-07-22T04:47:34.079Z,21.45
2016-07-22T04:48:04.097Z,21.54
2016-07-22T04:48:33.407Z,21.48
2016-07-22T04:49:04.129Z,21.54
2016-07-22T04:49:33.439Z,21.52
2016-07-22T04:50:04.169Z,21.57
2016-07-22T04:50:34.176Z,21.55
2016-07-22T04:51:04.196Z,21.6
2016-07-22T04:51:34.202Z,21.6
2016-07-22T04:52:04.220Z,21.6
2016-07-22T04:52:34.245Z,21.58
2016-07-22T04:53:04.254Z,21.67
2016-07-22T04:53:34.270Z,21.64
2016-07-22T04:54:04.290Z,21.75
2016-07-22T04:54:34.303Z,21.76
2016-07-22T04:55:04.321Z,21.91
2016-07-22T04:55:34.334Z,21.83
2016-07-22T04:56:04.360Z,21.83
2016-07-22T04:56:33.660Z,21.96
2016-07-22T04:57:04.386Z,21.96
2016-07-22T04:57:34.396Z,21.98
2016-07-22T04:58:04.430Z,22.06
2016-07-22T04:58:34.428Z,22.04
2016-07-22T04:59:04.450Z,22.07
2016-07-22T04:59:34.459Z,22.04
2016-07-22T05:00:04.480Z,22.06
2016-07-22T05:00:34.498Z,22.04
2016-07-22T05:01:04.512Z,22.06
2016-07-22T05:01:34.542Z,22.17
2016-07-22T05:02:04.544Z,22.13
2016-07-22T05:02:34.561Z,22.08
2016-07-22T05:03:04.576Z,22
2016-07-22T05:03:34.592Z,22.07
2016-07-22T05:04:04.607Z,22.14
2016-07-22T05:04:34.622Z,22.08
2016-07-22T05:05:04.637Z,22.1
2016-07-22T05:05:34.662Z,22.2
2016-07-22T05:06:04.674Z,22.13
2016-07-22T05:06:34.682Z,22.1
2016-07-22T05:07:04.708Z,22.13
2016-07-22T05:07:34.723Z,22.13
2016-07-22T05:08:04.745Z,22.29
2016-07-22T05:08:34.746Z,22.28
2016-07-22T05:09:04.769Z,22.35
2016-07-22T05:09:34.781Z,22.28
2016-07-22T05:10:04.808Z,22.25
2016-07-22T05:10:34.814Z,22.26
2016-07-22T05:11:04.828Z,22.23
2016-07-22T05:11:34.842Z,22.3
2016-07-22T05:12:04.863Z,22.36
2016-07-22T05:12:34.876Z,22.43
2016-07-22T05:13:04.898Z,22.45
2016-07-22T05:13:34.907Z,22.44
2016-07-22T05:14:04.933Z,22.41
2016-07-22T05:14:34.939Z,22.43
2016-07-22T05:15:04.244Z,22.41
2016-07-22T05:15:34.972Z,22.36
2016-07-22T05:16:04.993Z,22.43
2016-07-22T05:16:35.012Z,22.39
2016-07-22T05:17:05.023Z,22.38
2016-07-22T05:17:35.042Z,22.45
2016-07-22T05:18:05.050Z,22.48
2016-07-22T05:18:35.072Z,22.54
2016-07-22T05:19:05.087Z,22.54
2016-07-22T05:19:35.107Z,22.55
2016-07-22T05:20:04.410Z,22.48
2016-07-22T05:20:35.144Z,22.6
2016-07-22T05:21:05.150Z,22.59
2016-07-22T05:21:35.166Z,22.57
2016-07-22T05:22:05.181Z,22.51
2016-07-22T05:22:34.491Z,22.62
2016-07-22T05:23:05.211Z,22.57
2016-07-22T05:23:35.240Z,22.59
2016-07-22T05:24:05.253Z,22.51
2016-07-22T05:24:35.263Z,22.55
2016-07-22T05:25:05.287Z,22.65
2016-07-22T05:25:35.292Z,22.59
2016-07-22T05:26:05.316Z,22.54
2016-07-22T05:26:35.324Z,22.44
2016-07-22T05:27:05.343Z,22.51
2016-07-22T05:27:35.358Z,22.45
2016-07-22T05:28:05.377Z,22.43
2016-07-22T05:28:35.391Z,22.43
2016-07-22T05:29:05.412Z,22.45
2016-07-22T05:29:35.423Z,22.44
2016-07-22T05:30:05.447Z,22.59
2016-07-22T05:30:34.744Z,22.6
2016-07-22T05:31:05.474Z,22.59
2016-07-22T05:31:35.492Z,22.53
2016-07-22T05:32:05.503Z,22.54
2016-07-22T05:32:35.519Z,22.62
2016-07-22T05:33:05.538Z,22.6
2016-07-22T05:33:35.559Z,22.6
2016-07-22T05:34:05.572Z,22.73
2016-07-22T05:34:35.587Z,22.69
2016-07-22T05:35:05.599Z,22.63
2016-07-22T05:35:35.617Z,22.65
2016-07-22T05:36:05.631Z,22.72
2016-07-22T05:36:35.647Z,22.75
2016-07-22T05:37:04.956Z,22.72
2016-07-22T05:37:34.983Z,22.76
2016-07-22T05:38:05.700Z,22.83
2016-07-22T05:38:35.715Z,22.85
2016-07-22T05:39:05.729Z,22.83
2016-07-22T05:39:35.745Z,22.87
2016-07-22T05:40:05.764Z,23
2016-07-22T05:40:36.006Z,22.99
2016-07-22T05:41:05.091Z,23.02
2016-07-22T05:41:35.806Z,23.03
2016-07-22T05:42:05.829Z,22.93
2016-07-22T05:42:35.843Z,22.94
2016-07-22T05:43:05.858Z,23.05
2016-07-22T05:43:35.872Z,23.03
2016-07-22T05:44:05.900Z,23.03
2016-07-22T05:44:35.905Z,23.05
2016-07-22T05:45:05.927Z,23.1
2016-07-22T05:45:35.939Z,23.05
2016-07-22T05:46:04.538Z,23.15
2016-07-22T05:46:35.980Z,23.15
2016-07-22T05:47:05.988Z,23.2
2016-07-22T05:47:36.009Z,23.17
2016-07-22T05:48:06.029Z,23.15
2016-07-22T05:48:36.037Z,23.23
2016-07-22T05:49:06.054Z,23.28
2016-07-22T05:49:36.068Z,23.27
2016-07-22T05:50:06.089Z,23.23
2016-07-22T05:50:36.108Z,23.21
2016-07-22T05:51:06.116Z,23.17
2016-07-22T05:51:36.130Z,23.09
2016-07-22T05:52:06.159Z,23.1
2016-07-22T05:52:36.165Z,23.1
2016-07-22T05:53:06.186Z,23.15
2016-07-22T05:53:36.195Z,23.23
2016-07-22T05:54:05.509Z,23.2
2016-07-22T05:54:36.222Z,23.23
2016-07-22T05:55:06.244Z,23.2
2016-07-22T05:55:36.262Z,23.18
2016-07-22T05:56:06.280Z,23.18
2016-07-22T05:56:36.288Z,23.15
2016-07-22T05:57:06.317Z,23.28
2016-07-22T05:57:36.327Z,23.24
2016-07-22T05:58:06.337Z,23.37
2016-07-22T05:58:36.361Z,23.37
2016-07-22T05:59:06.377Z,23.4
2016-07-22T05:59:36.398Z,23.5
2016-07-22T06:00:06.407Z,23.4
2016-07-22T06:00:35.722Z,23.47
2016-07-22T06:01:06.439Z,23.39
2016-07-22T06:01:36.464Z,23.4
2016-07-22T06:02:06.473Z,23.24
2016-07-22T06:02:36.492Z,23.32
2016-07-22T06:03:06.503Z,23.4
2016-07-22T06:03:35.814Z,23.4
2016-07-22T06:04:06.537Z,23.51
2016-07-22T06:04:36.550Z,23.46
2016-07-22T06:05:06.574Z,23.48
2016-07-22T06:05:36.590Z,23.51
2016-07-22T06:06:06.606Z,23.5
2016-07-22T06:06:36.617Z,23.44
2016-07-22T06:07:06.635Z,23.47
2016-07-22T06:07:36.649Z,23.61
2016-07-22T06:08:06.671Z,23.48
2016-07-22T06:08:36.686Z,23.55
2016-07-22T06:09:06.699Z,23.5
2016-07-22T06:09:36.721Z,23.59
2016-07-22T06:10:06.735Z,23.59
2016-07-22T06:10:36.748Z,23.5
2016-07-22T06:11:06.762Z,23.54
2016-07-22T06:11:36.779Z,23.48
2016-07-22T06:12:06.797Z,23.63
2016-07-22T06:12:36.122Z,23.62
2016-07-22T06:13:06.826Z,23.65
2016-07-22T06:13:36.850Z,23.62
2016-07-22T06:14:06.863Z,23.58
2016-07-22T06:14:36.886Z,23.56
2016-07-22T06:15:06.896Z,23.65
2016-07-22T06:15:36.202Z,23.71
2016-07-22T06:16:06.926Z,23.81
2016-07-22T06:16:36.946Z,23.71
2016-07-22T06:17:06.966Z,23.65
2016-07-22T06:17:36.980Z,23.73
2016-07-22T06:18:06.995Z,23.73
2016-07-22T06:18:37.026Z,23.71
2016-07-22T06:19:07.031Z,23.83
2016-07-22T06:19:37.042Z,23.83
2016-07-22T06:20:06.348Z,23.86
2016-07-22T06:20:37.078Z,23.83
2016-07-22T06:21:07.092Z,23.8
2016-07-22T06:21:37.104Z,23.83
2016-07-22T06:22:07.135Z,23.88
2016-07-22T06:22:37.148Z,23.87
2016-07-22T06:23:07.154Z,23.83
2016-07-22T06:23:37.181Z,23.88
2016-07-22T06:24:07.188Z,23.87
2016-07-22T06:24:37.208Z,23.86
2016-07-22T06:25:07.221Z,23.87
2016-07-22T06:25:37.238Z,23.8
2016-07-22T06:26:07.249Z,23.92
2016-07-22T06:26:37.269Z,23.91
2016-07-22T06:27:07.287Z,24.06
2016-07-22T06:27:37.307Z,24.03
2016-07-22T06:28:06.609Z,24.06
2016-07-22T06:28:37.337Z,24.2